createdAt,value
2022-10-06T00:00:54.331Z,100.00
2022-10-06T00:03:23.155Z,100.00
2022-10-06T00:05:51.347Z,100.00
2022-10-06T00:08:19.701Z,100.00
2022-10-06T00:10:47.343Z,100.00
2022-10-06T00:13:14.974Z,100.00
2022-10-06T00:15:42.621Z,100.00
2022-10-06T00:18:11.607Z,100.00
2022-10-06T00:20:39.347Z,100.00
2022-10-06T00:23:06.944Z,100.00
2022-10-06T00:25:34.592Z,100.00
2022-10-06T00:28:02.272Z,100.00
2022-10-06T00:30:31.640Z,100.00
2022-10-06T00:33:00.951Z,100.00
2022-10-06T00:35:33.596Z,100.00
2022-10-06T00:38:01.471Z,99.84
2022-10-06T00:40:29.972Z,100.00
2022-10-06T00:42:59.663Z,99.78
2022-10-06T00:45:32.570Z,99.97
2022-10-06T00:48:04.354Z,100.00
2022-10-06T00:50:34.177Z,100.00
2022-10-06T00:53:02.960Z,99.88
2022-10-06T00:55:30.981Z,99.92
2022-10-06T00:57:59.755Z,99.38
2022-10-06T01:00:30.114Z,98.93
2022-10-06T01:03:02.603Z,98.15
2022-10-06T01:05:35.411Z,97.67
2022-10-06T01:08:03.165Z,97.23
2022-10-06T01:10:30.823Z,96.85
2022-10-06T01:12:58.509Z,96.80
2022-10-06T01:15:28.573Z,96.84
2022-10-06T01:18:02.115Z,96.57
2022-10-06T01:20:29.956Z,96.55
2022-10-06T01:23:03.755Z,96.37
2022-10-06T01:25:32.336Z,95.61
2022-10-06T01:28:01.922Z,95.48
2022-10-06T01:30:32.440Z,94.54
2022-10-06T01:33:00.252Z,94.35
2022-10-06T01:35:27.817Z,93.81
2022-10-06T01:37:58.707Z,93.12
2022-10-06T01:40:29.239Z,93.04
2022-10-06T01:42:56.940Z,92.90
2022-10-06T01:45:24.650Z,92.96
2022-10-06T01:47:52.830Z,92.63
2022-10-06T01:50:20.612Z,92.51
2022-10-06T01:52:48.208Z,92.32
2022-10-06T01:55:17.161Z,92.15
2022-10-06T01:57:46.134Z,91.69
2022-10-06T02:00:14.367Z,91.75
2022-10-06T02:02:43.671Z,91.20
2022-10-06T02:05:11.616Z,90.89
2022-10-06T02:07:39.869Z,90.81
2022-10-06T02:10:08.323Z,90.77
2022-10-06T02:12:36.069Z,90.31
2022-10-06T02:15:06.192Z,90.18
2022-10-06T02:17:33.877Z,90.11
2022-10-06T02:20:01.584Z,89.41
2022-10-06T02:22:29.156Z,90.29
2022-10-06T02:24:56.952Z,89.96
2022-10-06T02:27:24.728Z,89.74
2022-10-06T02:29:52.314Z,89.43
2022-10-06T02:32:21.262Z,89.52
2022-10-06T02:34:49.813Z,90.12
2022-10-06T02:37:17.457Z,91.13
2022-10-06T02:39:45.195Z,91.53
2022-10-06T02:42:12.737Z,92.02
2022-10-06T02:44:40.307Z,92.74
2022-10-06T02:47:13.983Z,93.33
2022-10-06T02:49:43.003Z,93.03
2022-10-06T02:52:11.107Z,93.06
2022-10-06T02:54:38.911Z,92.40
2022-10-06T02:57:06.532Z,92.81
2022-10-06T02:59:34.460Z,92.62
2022-10-06T03:02:08.221Z,91.85
2022-10-06T03:04:35.854Z,91.19
2022-10-06T03:07:04.886Z,90.59
2022-10-06T03:09:32.768Z,89.55
2022-10-06T03:12:00.442Z,89.00
2022-10-06T03:14:28.083Z,88.39
2022-10-06T03:16:56.873Z,87.91
2022-10-06T03:19:24.717Z,86.80
2022-10-06T03:21:52.396Z,86.61
2022-10-06T03:24:21.406Z,86.52
2022-10-06T03:26:49.005Z,86.34
2022-10-06T03:29:16.796Z,85.85
2022-10-06T03:31:44.925Z,85.86
2022-10-06T03:34:13.494Z,85.97
2022-10-06T03:36:41.212Z,85.97
2022-10-06T03:39:09.212Z,85.01
2022-10-06T03:41:39.534Z,85.01
2022-10-06T03:44:07.244Z,84.11
2022-10-06T03:46:37.076Z,82.93
2022-10-06T03:49:05.152Z,80.74
2022-10-06T03:51:34.362Z,79.78
2022-10-06T03:54:02.452Z,79.31
2022-10-06T03:56:31.483Z,79.56
2022-10-06T03:59:02.320Z,79.67
2022-10-06T04:01:31.534Z,80.09
2022-10-06T04:04:00.734Z,80.21
2022-10-06T04:06:29.771Z,79.62
2022-10-06T04:08:58.053Z,79.51
2022-10-06T04:11:27.099Z,78.72
2022-10-06T04:13:58.054Z,78.92
2022-10-06T04:16:29.338Z,79.17
2022-10-06T04:18:59.648Z,79.86
2022-10-06T04:21:28.669Z,80.42
2022-10-06T04:23:57.790Z,81.09
2022-10-06T04:26:31.427Z,80.89
2022-10-06T04:29:00.542Z,80.70
2022-10-06T04:31:31.023Z,80.65
2022-10-06T04:33:59.984Z,80.34
2022-10-06T04:36:29.240Z,80.04
2022-10-06T04:38:59.202Z,80.14
2022-10-06T04:41:28.927Z,80.84
2022-10-06T04:43:56.960Z,81.34
2022-10-06T04:46:43.785Z,80.99
2022-10-06T04:49:19.493Z,81.37
2022-10-06T04:51:48.539Z,81.22
2022-10-06T04:54:16.181Z,81.04
2022-10-06T04:56:43.811Z,80.63
2022-10-06T04:59:11.564Z,80.63
2022-10-06T05:01:39.197Z,80.27
2022-10-06T05:04:10.096Z,80.35
2022-10-06T05:06:41.219Z,79.04
2022-10-06T05:09:10.679Z,78.58
2022-10-06T05:11:39.107Z,79.50
2022-10-06T05:14:06.836Z,80.34
2022-10-06T05:16:36.982Z,81.03
2022-10-06T05:19:04.833Z,80.88
2022-10-06T05:21:33.746Z,79.52
2022-10-06T05:24:03.517Z,79.91
2022-10-06T05:26:33.751Z,79.42
2022-10-06T05:29:01.647Z,78.96
2022-10-06T05:31:31.544Z,79.61
2022-10-06T05:34:00.497Z,79.42
2022-10-06T05:36:30.471Z,79.88
2022-10-06T05:38:59.506Z,79.33
2022-10-06T05:41:30.054Z,79.53
2022-10-06T05:43:58.510Z,79.22
2022-10-06T05:46:28.393Z,78.18
2022-10-06T05:48:57.436Z,77.92
2022-10-06T05:51:30.595Z,78.16
2022-10-06T05:53:59.047Z,78.06
2022-10-06T05:56:29.651Z,77.46
2022-10-06T05:58:59.231Z,75.52
2022-10-06T06:01:28.447Z,72.34
2022-10-06T06:03:59.361Z,69.46
2022-10-06T06:06:28.948Z,67.81
2022-10-06T06:08:58.616Z,65.66
2022-10-06T06:11:28.228Z,63.30
2022-10-06T06:13:57.735Z,61.85
2022-10-06T06:16:25.845Z,62.41
2022-10-06T06:18:53.893Z,64.47
2022-10-06T06:21:21.838Z,65.48
2022-10-06T06:23:50.525Z,65.73
2022-10-06T06:26:19.824Z,63.85
2022-10-06T06:28:50.840Z,62.27
2022-10-06T06:31:21.126Z,60.96
2022-10-06T06:33:51.511Z,59.01
2022-10-06T06:36:21.220Z,57.23
2022-10-06T06:38:52.097Z,55.46
2022-10-06T06:41:24.225Z,53.80
2022-10-06T06:43:55.176Z,52.35
2022-10-06T06:46:25.241Z,50.61
2022-10-06T06:48:55.882Z,48.65
2022-10-06T06:51:24.368Z,48.11
2022-10-06T06:53:52.683Z,47.42
2022-10-06T06:56:21.776Z,47.03
2022-10-06T06:58:50.184Z,46.58
2022-10-06T07:01:21.099Z,46.01
2022-10-06T07:03:58.390Z,45.00
2022-10-06T07:06:29.217Z,44.81
2022-10-06T07:08:58.799Z,45.58
2022-10-06T07:11:29.138Z,44.42
2022-10-06T07:13:59.470Z,44.62
2022-10-06T07:16:46.895Z,44.19
2022-10-06T07:19:33.074Z,45.08
2022-10-06T07:22:19.904Z,43.67
2022-10-06T07:25:05.747Z,44.26
2022-10-06T07:27:35.658Z,44.52
2022-10-06T07:30:03.872Z,45.79
2022-10-06T07:32:32.852Z,46.20
2022-10-06T07:35:04.200Z,45.88
2022-10-06T07:37:31.841Z,46.04
2022-10-06T07:40:02.605Z,45.03
2022-10-06T07:42:30.299Z,46.12
2022-10-06T07:45:15.697Z,44.71
2022-10-06T07:47:44.767Z,44.84
2022-10-06T07:50:12.923Z,44.27
2022-10-06T07:52:40.516Z,45.45
2022-10-06T07:55:08.997Z,45.46
2022-10-06T07:57:36.619Z,45.49
2022-10-06T08:00:07.275Z,45.84
2022-10-06T08:02:36.118Z,44.16
2022-10-06T08:05:07.136Z,44.48
2022-10-06T08:07:34.820Z,45.35
2022-10-06T08:10:02.421Z,46.33
2022-10-06T08:12:37.665Z,47.98
2022-10-06T08:15:07.687Z,47.35
2022-10-06T08:17:37.158Z,48.04
2022-10-06T08:20:07.932Z,47.12
2022-10-06T08:22:36.251Z,49.10
2022-10-06T08:25:06.582Z,50.66
2022-10-06T08:27:35.705Z,51.39
2022-10-06T08:30:03.978Z,50.82
2022-10-06T08:32:32.088Z,49.77
2022-10-06T08:34:59.921Z,50.86
2022-10-06T08:37:28.808Z,50.65
2022-10-06T08:39:57.140Z,50.37
2022-10-06T08:42:33.113Z,49.71
2022-10-06T08:45:03.127Z,50.34
2022-10-06T08:47:35.540Z,51.92
2022-10-06T08:50:05.965Z,52.81
2022-10-06T08:52:47.994Z,52.65
2022-10-06T08:55:29.165Z,53.34
2022-10-06T09:00:43.377Z,53.95
2022-10-06T09:03:23.653Z,53.96
2022-10-06T09:05:54.037Z,53.68
2022-10-06T09:08:39.609Z,55.47
2022-10-06T09:11:20.986Z,54.47
2022-10-06T09:13:55.163Z,53.39
2022-10-06T09:16:28.990Z,54.00
2022-10-06T09:19:08.763Z,54.10
2022-10-06T09:21:42.447Z,54.33
2022-10-06T09:24:16.458Z,54.45
2022-10-06T09:26:46.409Z,54.42
2022-10-06T09:29:14.980Z,53.20
2022-10-06T09:31:44.435Z,53.32
2022-10-06T09:34:21.076Z,52.53
2022-10-06T09:37:02.086Z,52.56
2022-10-06T09:39:36.427Z,51.74
2022-10-06T09:42:11.811Z,51.72
2022-10-06T09:44:47.980Z,52.04
2022-10-06T09:47:25.309Z,52.18
2022-10-06T09:50:14.404Z,50.77
2022-10-06T09:52:43.002Z,50.83
2022-10-06T09:55:14.842Z,49.74
2022-10-06T09:57:50.027Z,50.62
2022-10-06T10:00:28.068Z,50.66
2022-10-06T10:02:59.931Z,50.84
2022-10-06T10:05:29.845Z,50.73
2022-10-06T10:08:06.229Z,48.84
2022-10-06T10:10:36.968Z,49.87
2022-10-06T10:13:17.697Z,49.51
2022-10-06T10:15:54.341Z,50.15
2022-10-06T10:18:26.626Z,50.22
2022-10-06T10:20:57.565Z,50.64
2022-10-06T10:23:31.633Z,50.62
2022-10-06T10:26:18.737Z,50.08
2022-10-06T10:29:33.129Z,48.01
2022-10-06T10:32:09.767Z,49.32
2022-10-06T10:34:51.158Z,49.85
2022-10-06T10:37:24.324Z,50.28
2022-10-06T10:39:55.496Z,49.01
2022-10-06T10:42:30.809Z,49.18
2022-10-06T10:45:02.357Z,49.92
2022-10-06T10:47:35.114Z,48.92
2022-10-06T10:50:08.734Z,49.75
2022-10-06T10:52:42.145Z,49.57
2022-10-06T10:55:23.162Z,49.87
2022-10-06T10:57:54.894Z,50.20
2022-10-06T11:00:25.316Z,49.99
2022-10-06T11:02:55.594Z,50.38
2022-10-06T11:05:37.527Z,50.55
2022-10-06T11:08:13.443Z,49.97
2022-10-06T11:10:47.582Z,49.80
2022-10-06T11:13:24.026Z,47.70
2022-10-06T11:16:05.074Z,47.67
2022-10-06T11:18:48.784Z,47.72
2022-10-06T11:21:21.867Z,47.80
2022-10-06T11:23:56.740Z,47.82
2022-10-06T11:26:42.504Z,48.37
2022-10-06T11:29:23.933Z,49.97
2022-10-06T11:32:01.782Z,50.71
2022-10-06T11:34:29.476Z,50.97
2022-10-06T11:37:01.730Z,50.28
2022-10-06T11:39:40.004Z,49.02
2022-10-06T11:42:17.798Z,49.44
2022-10-06T11:44:52.432Z,49.57
2022-10-06T11:47:35.156Z,51.99
2022-10-06T11:50:03.756Z,50.96
2022-10-06T11:52:55.252Z,48.49
2022-10-06T11:55:26.264Z,46.73
2022-10-06T11:58:43.046Z,46.53
2022-10-06T12:01:03.038Z,46.82
2022-10-06T12:04:10.967Z,46.85
2022-10-06T12:06:57.275Z,46.64
2022-10-06T12:09:41.315Z,47.46
2022-10-06T12:13:06.540Z,47.43
2022-10-06T12:19:16.876Z,49.00
2022-10-06T12:22:01.827Z,49.82
2022-10-06T12:24:37.911Z,48.89
2022-10-06T12:27:25.878Z,49.08
2022-10-06T12:29:59.340Z,49.48
2022-10-06T12:32:44.435Z,49.83
2022-10-06T12:35:26.029Z,48.52
2022-10-06T12:37:55.056Z,49.39
2022-10-06T12:40:55.372Z,48.79
2022-10-06T12:43:32.833Z,50.19
2022-10-06T12:46:08.134Z,50.34
2022-10-06T12:48:43.074Z,49.17
2022-10-06T12:51:23.396Z,48.95
2022-10-06T12:53:57.039Z,49.48
2022-10-06T12:56:29.528Z,49.71
2022-10-06T12:58:57.211Z,49.12
2022-10-06T13:01:26.832Z,50.04
2022-10-06T13:03:56.184Z,49.76
2022-10-06T13:06:26.172Z,49.61
2022-10-06T13:09:06.776Z,47.89
2022-10-06T13:11:34.486Z,49.96
2022-10-06T13:14:10.970Z,49.99
2022-10-06T13:16:41.625Z,47.75
2022-10-06T13:19:21.415Z,48.57
2022-10-06T13:21:49.177Z,47.65
2022-10-06T13:24:20.483Z,47.94
2022-10-06T13:26:49.141Z,47.27
2022-10-06T13:29:22.419Z,45.99
2022-10-06T13:31:53.023Z,47.29
2022-10-06T13:34:29.749Z,47.75
2022-10-06T13:36:59.755Z,46.11
2022-10-06T13:39:31.543Z,46.87
2022-10-06T13:42:03.278Z,45.87
2022-10-06T13:44:37.870Z,45.95
2022-10-06T13:47:08.754Z,46.58
2022-10-06T13:49:48.576Z,46.54
2022-10-06T13:52:18.642Z,45.90
2022-10-06T13:54:51.708Z,46.32
2022-10-06T13:57:39.136Z,46.64
2022-10-06T14:00:17.627Z,46.39
2022-10-06T14:02:47.072Z,45.72
2022-10-06T14:05:31.449Z,47.70
2022-10-06T14:08:01.357Z,47.12
2022-10-06T14:10:33.431Z,46.99
2022-10-06T14:13:02.268Z,47.83
2022-10-06T14:15:37.350Z,47.63
2022-10-06T14:18:06.068Z,46.95
2022-10-06T14:20:46.968Z,46.58
2022-10-06T14:23:41.283Z,45.97
2022-10-06T14:26:11.230Z,46.35
2022-10-06T14:28:48.488Z,46.58
2022-10-06T14:31:19.589Z,46.60
2022-10-06T14:33:48.509Z,47.79
2022-10-06T14:36:22.847Z,46.50
2022-10-06T14:38:52.073Z,48.32
2022-10-06T14:41:24.756Z,48.36
2022-10-06T14:43:55.999Z,47.93
2022-10-06T14:46:28.319Z,48.14
2022-10-06T14:48:56.587Z,47.63
2022-10-06T14:51:34.671Z,46.42
2022-10-06T14:54:06.133Z,47.48
2022-10-06T14:56:35.477Z,48.58
2022-10-06T14:59:06.015Z,48.55
2022-10-06T15:01:35.829Z,48.35
2022-10-06T15:04:05.734Z,48.94
2022-10-06T15:06:52.287Z,48.65
2022-10-06T15:09:19.979Z,48.73
2022-10-06T15:11:47.886Z,48.95
2022-10-06T15:14:15.535Z,49.81
2022-10-06T15:16:44.515Z,49.18
2022-10-06T15:19:12.959Z,47.97
2022-10-06T15:21:45.182Z,48.34
2022-10-06T15:24:15.371Z,49.01
2022-10-06T15:27:01.342Z,49.96
2022-10-06T15:29:29.345Z,50.54
2022-10-06T15:31:58.554Z,50.52
2022-10-06T15:34:28.360Z,50.64
2022-10-06T15:36:58.785Z,50.06
2022-10-06T15:39:28.252Z,50.15
2022-10-06T15:41:57.280Z,51.01
2022-10-06T15:44:25.055Z,50.40
2022-10-06T15:46:55.429Z,50.26
2022-10-06T15:49:25.250Z,51.66
2022-10-06T15:51:54.402Z,53.68
2022-10-06T15:54:24.976Z,53.46
2022-10-06T15:56:54.302Z,50.03
2022-10-06T15:59:24.097Z,50.34
2022-10-06T16:01:56.094Z,50.45
2022-10-06T16:04:32.268Z,52.20
2022-10-06T16:07:00.208Z,52.71
2022-10-06T16:09:35.432Z,53.77
2022-10-06T16:12:06.007Z,53.80
2022-10-06T16:14:33.991Z,52.77
2022-10-06T16:17:04.067Z,52.51
2022-10-06T16:19:36.654Z,52.98
2022-10-06T16:22:05.698Z,53.81
2022-10-06T16:24:35.165Z,53.38
2022-10-06T16:27:03.119Z,54.16
2022-10-06T16:29:34.551Z,54.55
2022-10-06T16:32:02.418Z,55.48
2022-10-06T16:34:31.587Z,54.49
2022-10-06T16:36:59.497Z,54.12
2022-10-06T16:39:27.143Z,54.00
2022-10-06T16:41:56.156Z,54.31
2022-10-06T16:44:23.819Z,54.70
2022-10-06T16:46:51.495Z,54.94
2022-10-06T16:49:19.645Z,54.94
2022-10-06T16:51:47.252Z,55.60
2022-10-06T16:54:17.050Z,55.20
2022-10-06T16:56:46.584Z,55.20
2022-10-06T16:59:17.274Z,55.84
2022-10-06T17:01:45.412Z,57.17
2022-10-06T17:04:14.604Z,57.66
2022-10-06T17:06:45.291Z,57.92
2022-10-06T17:09:14.867Z,57.28
2022-10-06T17:11:43.994Z,57.64
2022-10-06T17:14:12.318Z,58.70
2022-10-06T17:16:43.888Z,59.47
2022-10-06T17:19:13.248Z,58.20
2022-10-06T17:21:46.596Z,58.03
2022-10-06T17:24:17.469Z,58.18
2022-10-06T17:26:46.913Z,59.26
2022-10-06T17:29:17.486Z,59.84
2022-10-06T17:31:47.763Z,60.29
2022-10-06T17:34:20.653Z,60.80
2022-10-06T17:36:51.243Z,61.21
2022-10-06T17:39:21.055Z,61.48
2022-10-06T17:41:50.176Z,62.33
2022-10-06T17:44:22.533Z,62.31
2022-10-06T17:46:53.767Z,62.56
2022-10-06T17:49:22.551Z,63.19
2022-10-06T17:51:51.703Z,63.42
2022-10-06T17:54:21.679Z,63.87
2022-10-06T17:56:51.387Z,64.15
2022-10-06T17:59:24.801Z,65.16
2022-10-06T18:01:57.106Z,65.94
2022-10-06T18:04:26.037Z,65.93
2022-10-06T18:06:54.837Z,66.44
2022-10-06T18:09:23.012Z,66.58
2022-10-06T18:11:54.998Z,66.80
2022-10-06T18:14:24.474Z,67.23
2022-10-06T18:16:56.645Z,67.35
2022-10-06T18:19:26.565Z,67.69
2022-10-06T18:21:56.560Z,68.12
2022-10-06T18:24:26.267Z,68.75
2022-10-06T18:26:56.117Z,68.47
2022-10-06T18:29:25.914Z,68.67
2022-10-06T18:32:15.022Z,69.50
2022-10-06T18:37:32.925Z,69.81
2022-10-06T18:40:02.388Z,69.27
2022-10-06T18:42:30.124Z,69.73
2022-10-06T18:45:15.253Z,69.81
2022-10-06T18:48:02.127Z,70.01
2022-10-06T18:50:32.913Z,71.56
2022-10-06T18:53:00.854Z,71.54
2022-10-06T18:55:29.775Z,72.85
2022-10-06T18:57:57.623Z,72.64
2022-10-06T19:00:26.469Z,72.73
2022-10-06T19:02:56.687Z,72.27
2022-10-06T19:05:24.519Z,73.18
2022-10-06T19:07:54.131Z,73.28
2022-10-06T19:10:22.052Z,73.35
2022-10-06T19:12:52.649Z,73.41
2022-10-06T19:15:21.452Z,73.84
2022-10-06T19:17:49.654Z,74.67
2022-10-06T19:20:19.114Z,75.78
2022-10-06T19:22:50.758Z,76.26
2022-10-06T19:25:19.257Z,76.78
2022-10-06T19:27:48.106Z,77.09
2022-10-06T19:30:18.399Z,76.69
2022-10-06T19:32:46.091Z,76.42
2022-10-06T19:35:13.754Z,77.77
2022-10-06T19:37:42.963Z,77.71
2022-10-06T19:40:11.637Z,78.59
2022-10-06T19:42:47.513Z,79.36
2022-10-06T19:45:15.921Z,80.37
2022-10-06T19:47:44.975Z,78.98
2022-10-06T19:50:13.611Z,78.59
2022-10-06T19:52:42.720Z,78.27
2022-10-06T19:55:10.343Z,77.94
2022-10-06T19:57:38.029Z,78.16
2022-10-06T20:00:07.188Z,78.25
2022-10-06T20:02:37.455Z,78.45
2022-10-06T20:05:09.700Z,78.44
2022-10-06T20:07:37.374Z,78.64
2022-10-06T20:10:07.135Z,80.11
2022-10-06T20:12:35.983Z,81.23
2022-10-06T20:15:03.777Z,80.98
2022-10-06T20:17:31.481Z,80.78
2022-10-06T20:19:59.205Z,81.12
2022-10-06T20:22:27.326Z,81.76
2022-10-06T20:24:54.997Z,81.78
2022-10-06T20:27:23.977Z,81.85
2022-10-06T20:29:51.552Z,81.91
2022-10-06T20:32:19.106Z,81.68
2022-10-06T20:34:46.731Z,81.92
2022-10-06T20:37:14.415Z,82.40
2022-10-06T20:39:59.619Z,83.18
2022-10-06T20:42:28.572Z,83.39
2022-10-06T20:44:56.239Z,82.50
2022-10-06T20:47:23.840Z,83.01
2022-10-06T20:49:54.841Z,83.77
2022-10-06T20:52:23.114Z,83.90
2022-10-06T20:54:51.177Z,84.39
2022-10-06T20:57:18.840Z,84.65
2022-10-06T20:59:48.988Z,84.87
2022-10-06T21:02:17.192Z,86.17
2022-10-06T21:04:45.221Z,86.00
2022-10-06T21:07:13.057Z,86.35
2022-10-06T21:09:41.147Z,86.49
2022-10-06T21:12:09.018Z,86.62
2022-10-06T21:14:37.607Z,86.69
2022-10-06T21:17:06.832Z,86.93
2022-10-06T21:19:37.876Z,87.65
2022-10-06T21:22:07.003Z,87.82
2022-10-06T21:24:34.777Z,88.13
2022-10-06T21:27:03.229Z,88.43
2022-10-06T21:29:31.035Z,88.62
2022-10-06T21:31:58.832Z,89.03
2022-10-06T21:34:28.045Z,89.27
2022-10-06T21:36:56.052Z,89.19
2022-10-06T21:39:23.920Z,88.82
2022-10-06T21:41:51.739Z,88.53
2022-10-06T21:44:20.208Z,89.12
2022-10-06T21:46:49.794Z,88.90
2022-10-06T21:49:20.058Z,88.54
2022-10-06T21:51:51.159Z,89.25
2022-10-06T21:54:20.092Z,89.89
2022-10-06T21:56:48.062Z,89.69
2022-10-06T21:59:16.127Z,89.91
2022-10-06T22:01:45.758Z,90.16
2022-10-06T22:04:15.194Z,90.76
2022-10-06T22:06:44.643Z,90.86
2022-10-06T22:09:16.552Z,90.67
2022-10-06T22:11:44.709Z,90.98
2022-10-06T22:14:14.900Z,91.48
2022-10-06T22:16:43.717Z,91.70
2022-10-06T22:19:13.332Z,92.02
2022-10-06T22:21:43.381Z,91.87
2022-10-06T22:24:15.468Z,92.02
2022-10-06T22:26:44.559Z,91.99
2022-10-06T22:29:14.089Z,92.10
2022-10-06T22:31:44.546Z,92.25
2022-10-06T22:34:14.849Z,92.68
2022-10-06T22:36:43.091Z,92.58
2022-10-06T22:39:11.156Z,92.43
2022-10-06T22:41:40.415Z,92.68
2022-10-06T22:44:08.426Z,91.83
2022-10-06T22:46:37.890Z,92.72
2022-10-06T22:49:06.658Z,92.75
2022-10-06T22:51:34.681Z,92.90
2022-10-06T22:54:03.184Z,93.05
2022-10-06T22:56:32.989Z,92.58
2022-10-06T22:59:02.429Z,92.75
2022-10-06T23:01:30.742Z,93.29
2022-10-06T23:03:58.863Z,93.16
2022-10-06T23:06:26.920Z,93.55
2022-10-06T23:08:54.892Z,93.18
2022-10-06T23:11:23.274Z,93.59
2022-10-06T23:13:53.456Z,93.10
2022-10-06T23:16:25.033Z,93.74
2022-10-06T23:18:55.245Z,93.44
2022-10-06T23:21:27.584Z,93.21
2022-10-06T23:23:58.000Z,93.37
2022-10-06T23:26:26.582Z,93.66
2022-10-06T23:28:56.749Z,93.09
2022-10-06T23:31:26.498Z,93.37
2022-10-06T23:33:55.499Z,94.36
2022-10-06T23:36:23.281Z,94.19
2022-10-06T23:38:51.180Z,94.67
2022-10-06T23:41:19.555Z,94.78
2022-10-06T23:43:47.519Z,94.33
2022-10-06T23:46:15.613Z,94.55
2022-10-06T23:48:44.788Z,95.02
2022-10-06T23:51:14.310Z,94.25
2022-10-06T23:53:43.136Z,94.25
2022-10-06T23:56:11.301Z,94.37
2022-10-06T23:58:39.335Z,94.19
